Time;durP1;ratioP1;P1;durP2;ratioP2;P2;SDS_P1;SDS_P2;PMS_P1;PMS_P2;Temp;Humidity;BMP_temperature;BMP_pressure;BME280_temperature;BME280_humidity;BME280_pressure;Samples;Min_cycle;Max_cycle;Signal;HPM_P1;HPM_P2
2021/01/08 00:00:26;;;;;;;23.70;14.73;;;1.80;99.70;;;;;;5069980;28;20140;-81
2021/01/08 00:02:52;;;;;;;30.67;15.63;;;1.80;99.70;;;;;;5062489;28;20051;-82
2021/01/08 00:05:18;;;;;;;25.50;15.18;;;1.80;99.80;;;;;;5085416;28;20033;-82
2021/01/08 00:07:44;;;;;;;22.63;13.85;;;1.80;99.70;;;;;;5075459;28;20055;-81
2021/01/08 00:10:10;;;;;;;21.10;13.10;;;1.80;99.80;;;;;;5070395;28;20064;-81
2021/01/08 00:12:37;;;;;;;29.60;15.15;;;1.80;99.80;;;;;;5061784;28;20081;-81
2021/01/08 00:15:07;;;;;;;24.58;14.20;;;1.80;99.80;;;;;;5065403;28;20037;-82
2021/01/08 00:17:35;;;;;;;25.65;15.00;;;1.80;99.80;;;;;;5059658;28;20032;-81
2021/01/08 00:20:01;;;;;;;19.88;13.57;;;1.80;99.80;;;;;;5066223;28;20471;-81
2021/01/08 00:22:27;;;;;;;25.23;15.30;;;1.80;99.80;;;;;;5074487;28;20043;-81
2021/01/08 00:24:54;;;;;;;20.25;12.98;;;1.80;99.80;;;;;;5067135;28;20036;-81
2021/01/08 00:27:20;;;;;;;21.42;14.00;;;1.90;99.90;;;;;;5065489;28;20067;-81
2021/01/08 00:29:46;;;;;;;25.23;14.80;;;1.80;99.90;;;;;;5069335;28;20059;-81
2021/01/08 00:32:13;;;;;;;19.48;12.95;;;1.80;99.90;;;;;;5062807;28;20402;-81
2021/01/08 00:34:39;;;;;;;16.20;12.32;;;1.80;99.90;;;;;;5060660;28;20051;-81
2021/01/08 00:37:06;;;;;;;14.00;11.88;;;1.80;99.80;;;;;;5064297;28;20032;-81
2021/01/08 00:39:31;;;;;;;22.23;13.45;;;1.90;99.90;;;;;;5065291;28;20045;-81
2021/01/08 00:41:57;;;;;;;19.52;12.63;;;1.80;99.90;;;;;;5068920;28;20469;-81
2021/01/08 00:44:24;;;;;;;20.30;13.30;;;1.80;99.80;;;;;;5060272;28;20680;-82
2021/01/08 00:46:50;;;;;;;15.90;12.25;;;1.80;99.80;;;;;;5068636;28;20049;-82
2021/01/08 00:49:17;;;;;;;19.60;12.73;;;1.80;99.80;;;;;;5064819;28;20040;-81
2021/01/08 00:51:43;;;;;;;20.17;13.05;;;1.80;99.80;;;;;;5085997;28;20044;-82
2021/01/08 00:54:09;;;;;;;25.15;13.98;;;1.70;99.80;;;;;;5084434;28;20096;-82
2021/01/08 00:56:36;;;;;;;19.20;12.27;;;1.70;99.80;;;;;;5071250;28;20045;-82
2021/01/08 00:59:02;;;;;;;20.08;12.65;;;1.70;99.90;;;;;;5056175;28;20060;-81
2021/01/08 01:01:28;;;;;;;19.75;13.07;;;1.70;99.80;;;;;;5085270;28;20131;-81
2021/01/08 01:03:54;;;;;;;21.48;13.48;;;1.70;99.80;;;;;;5047172;28;20079;-81
2021/01/08 01:06:25;;;;;;;24.67;14.15;;;1.70;99.80;;;;;;5085251;28;20522;-81
2021/01/08 01:08:52;;;;;;;21.50;13.02;;;1.70;99.80;;;;;;5080446;28;20060;-81
2021/01/08 01:11:19;;;;;;;18.48;12.65;;;1.60;99.80;;;;;;5054368;28;20063;-81
2021/01/08 01:13:46;;;;;;;23.42;13.57;;;1.60;99.80;;;;;;5053456;28;20500;-81
2021/01/08 01:16:14;;;;;;;22.42;13.48;;;1.50;99.80;;;;;;5071332;28;20102;-81
2021/01/08 01:18:42;;;;;;;23.42;13.15;;;1.60;99.80;;;;;;5066857;28;21088;-81
2021/01/08 01:21:08;;;;;;;20.02;13.23;;;1.60;99.80;;;;;;5081143;28;20045;-82
2021/01/08 01:23:34;;;;;;;23.35;13.00;;;1.50;99.80;;;;;;5089537;28;20036;-82
2021/01/08 01:26:00;;;;;;;24.52;13.13;;;1.50;99.80;;;;;;5061969;28;20133;-81
2021/01/08 01:28:26;;;;;;;21.02;11.90;;;1.60;99.80;;;;;;5070760;28;20056;-81
2021/01/08 01:30:52;;;;;;;19.33;11.13;;;1.60;99.80;;;;;;5085397;28;20035;-81
2021/01/08 01:33:17;;;;;;;21.33;11.52;;;1.60;99.80;;;;;;5073830;28;20047;-81
2021/01/08 01:35:43;;;;;;;23.55;13.35;;;1.60;99.80;;;;;;5084684;28;20043;-81
2021/01/08 01:38:09;;;;;;;25.50;14.02;;;1.70;99.90;;;;;;5071614;28;20080;-81
2021/01/08 01:40:35;;;;;;;26.42;14.57;;;1.60;99.90;;;;;;5065354;28;20087;-81
2021/01/08 01:43:02;;;;;;;26.58;14.05;;;1.60;99.90;;;;;;5081125;28;20396;-81
2021/01/08 01:45:28;;;;;;;25.13;13.18;;;1.60;99.90;;;;;;5063336;28;20063;-81
2021/01/08 01:47:54;;;;;;;27.60;13.32;;;1.60;99.90;;;;;;5071654;28;20044;-81
2021/01/08 01:50:20;;;;;;;24.13;14.90;;;1.60;99.90;;;;;;5065569;28;20044;-81
2021/01/08 01:52:46;;;;;;;28.40;14.77;;;1.60;99.90;;;;;;5081802;28;20036;-81
2021/01/08 01:55:14;;;;;;;18.30;12.20;;;1.60;99.90;;;;;;5084747;28;20050;-82
2021/01/08 01:57:40;;;;;;;29.63;14.35;;;1.60;99.90;;;;;;5069969;28;20420;-82
2021/01/08 02:00:07;;;;;;;25.10;13.68;;;1.60;99.90;;;;;;5090951;28;20032;-82
2021/01/08 02:03:07;;;;;;;34.72;15.27;;;1.60;99.90;;;;;;5078158;28;20059;-81
2021/01/08 02:05:34;;;;;;;40.08;15.60;;;1.60;99.90;;;;;;4994405;28;20054;-82
2021/01/08 02:08:13;;;;;;;37.22;15.80;;;1.60;99.90;;;;;;4993153;28;20043;-81
2021/01/08 02:11:04;;;;;;;28.65;14.65;;;1.50;99.90;;;;;;4977457;28;20045;-81
2021/01/08 02:14:09;;;;;;;26.83;14.23;;;1.50;99.90;;;;;;4947519;29;20047;-81
2021/01/08 02:16:35;;;;;;;26.60;12.75;;;1.50;99.90;;;;;;4950131;29;20070;-81
2021/01/08 02:19:06;;;;;;;18.80;11.07;;;1.50;99.90;;;;;;4951592;29;20065;-81
2021/01/08 02:21:39;;;;;;;26.15;14.20;;;1.50;99.90;;;;;;4956189;29;20047;-81
2021/01/08 02:24:28;;;;;;;22.35;13.98;;;1.50;99.90;;;;;;4933423;29;20147;-81
2021/01/08 02:26:54;;;;;;;22.85;14.30;;;1.50;99.90;;;;;;4953428;29;20043;-81
2021/01/08 02:29:20;;;;;;;25.23;13.63;;;1.50;99.90;;;;;;4943157;28;20058;-81
2021/01/08 02:31:47;;;;;;;21.08;13.55;;;1.50;99.90;;;;;;4936573;29;20779;-81
2021/01/08 02:34:14;;;;;;;20.58;14.40;;;1.50;99.90;;;;;;4947843;29;20665;-81
2021/01/08 02:36:43;;;;;;;28.60;15.32;;;1.50;99.90;;;;;;4948722;28;20793;-81
2021/01/08 02:39:14;;;;;;;22.67;14.00;;;1.50;99.90;;;;;;4939484;28;20047;-81
2021/01/08 02:41:44;;;;;;;27.52;14.85;;;1.50;99.90;;;;;;4986297;28;20066;-81
2021/01/08 02:44:17;;;;;;;25.98;15.15;;;1.50;99.90;;;;;;4998767;28;20050;-81
2021/01/08 02:46:48;;;;;;;33.05;18.42;;;1.50;99.90;;;;;;4977231;28;20061;-81
2021/01/08 02:49:15;;;;;;;25.48;15.38;;;1.50;99.90;;;;;;4982158;28;20054;-81
2021/01/08 02:51:41;;;;;;;23.90;15.45;;;1.50;99.90;;;;;;5081890;28;20543;-82
2021/01/08 02:54:08;;;;;;;24.35;15.02;;;1.60;99.90;;;;;;5077131;28;20052;-81
2021/01/08 02:56:55;;;;;;;25.70;15.90;;;1.60;99.90;;;;;;5065338;28;20056;-81
2021/01/08 02:59:23;;;;;;;24.55;14.18;;;1.70;99.90;;;;;;5056123;28;20109;-81
2021/01/08 03:01:50;;;;;;;23.73;13.88;;;1.70;99.90;;;;;;5059840;28;20135;-81
2021/01/08 03:04:16;;;;;;;19.45;13.52;;;1.70;99.90;;;;;;5058275;28;20064;-81
2021/01/08 03:06:44;;;;;;;24.35;14.25;;;1.80;99.90;;;;;;5065993;28;20035;-81
2021/01/08 03:09:16;;;;;;;23.98;13.63;;;1.70;99.90;;;;;;5057978;28;20092;-81
2021/01/08 03:11:57;;;;;;;23.00;13.80;;;1.70;99.90;;;;;;5066826;28;20033;-80
2021/01/08 03:14:24;;;;;;;24.45;13.50;;;1.70;99.90;;;;;;5060929;28;20088;-81
2021/01/08 03:16:50;;;;;;;20.23;13.07;;;1.60;99.90;;;;;;5063055;28;20072;-81
2021/01/08 03:19:17;;;;;;;17.63;11.85;;;1.70;99.90;;;;;;5052466;28;20465;-81
2021/01/08 03:21:43;;;;;;;16.42;11.52;;;1.70;99.90;;;;;;5063105;28;20086;-81
2021/01/08 03:24:11;;;;;;;14.88;9.85;;;1.60;99.90;;;;;;5056727;28;20052;-81
2021/01/08 03:26:42;;;;;;;14.00;10.02;;;1.70;99.90;;;;;;5065097;28;20041;-80
2021/01/08 03:29:09;;;;;;;17.85;9.93;;;1.70;99.90;;;;;;5062276;28;20424;-81
2021/01/08 03:31:37;;;;;;;15.77;10.40;;;1.70;99.90;;;;;;5059895;28;20123;-81
2021/01/08 03:34:03;;;;;;;14.80;9.90;;;1.70;99.90;;;;;;5067052;28;20098;-81
2021/01/08 03:36:29;;;;;;;13.57;9.98;;;1.60;99.90;;;;;;5059139;28;20060;-81
2021/01/08 03:38:54;;;;;;;16.23;10.05;;;1.60;99.90;;;;;;5069261;28;20025;-82
2021/01/08 03:41:20;;;;;;;15.18;10.00;;;1.60;99.90;;;;;;5056532;28;20132;-81
2021/01/08 03:43:46;;;;;;;14.13;10.02;;;1.60;99.90;;;;;;5067007;28;20527;-81
2021/01/08 03:46:11;;;;;;;17.42;9.13;;;1.50;99.90;;;;;;5056608;28;20073;-81
2021/01/08 03:48:39;;;;;;;15.00;10.23;;;1.60;99.90;;;;;;5066094;28;20052;-81
2021/01/08 03:51:07;;;;;;;13.88;9.35;;;1.50;99.90;;;;;;5038264;28;20167;-81
2021/01/08 03:53:33;;;;;;;17.65;10.05;;;1.50;99.90;;;;;;5063123;28;20071;-81
2021/01/08 03:55:59;;;;;;;16.20;10.10;;;1.50;99.90;;;;;;5040073;28;20401;-81
2021/01/08 03:58:24;;;;;;;14.05;9.40;;;1.50;99.90;;;;;;5064916;28;20078;-81
2021/01/08 04:00:50;;;;;;;18.25;10.13;;;1.50;99.90;;;;;;5068102;28;20087;-81
2021/01/08 04:03:16;;;;;;;17.25;8.93;;;1.50;99.90;;;;;;5066678;28;20126;-81
2021/01/08 04:05:42;;;;;;;15.73;9.98;;;1.40;99.90;;;;;;5089385;28;20043;-81
2021/01/08 04:08:08;;;;;;;16.20;9.07;;;1.40;99.90;;;;;;5046012;28;20392;-81
2021/01/08 04:10:33;;;;;;;13.38;9.43;;;1.40;99.90;;;;;;5071058;28;20410;-81
2021/01/08 04:12:59;;;;;;;15.40;9.23;;;1.30;99.90;;;;;;5065182;28;20068;-81
2021/01/08 04:15:25;;;;;;;14.77;9.70;;;1.40;99.90;;;;;;5098834;28;20050;-81
2021/01/08 04:17:51;;;;;;;17.58;9.65;;;1.30;99.90;;;;;;5081935;28;20102;-81
2021/01/08 04:20:17;;;;;;;13.93;9.23;;;1.30;99.90;;;;;;5090508;28;20527;-81
2021/01/08 04:22:43;;;;;;;15.82;10.13;;;1.30;99.90;;;;;;5080879;28;20071;-81
2021/01/08 04:25:09;;;;;;;14.68;9.70;;;1.30;99.90;;;;;;5062951;28;20080;-81
2021/01/08 04:27:35;;;;;;;18.20;10.82;;;1.30;99.90;;;;;;5080332;28;20338;-81
2021/01/08 04:30:00;;;;;;;21.85;11.55;;;1.30;99.90;;;;;;5067486;28;20032;-81
2021/01/08 04:32:26;;;;;;;21.45;11.73;;;1.30;99.90;;;;;;5081350;28;20044;-81
2021/01/08 04:34:52;;;;;;;24.10;12.77;;;1.30;99.90;;;;;;5081753;28;20657;-81
2021/01/08 04:37:17;;;;;;;20.27;12.07;;;1.30;99.90;;;;;;5062769;28;20060;-81
2021/01/08 04:39:43;;;;;;;21.55;13.02;;;1.30;99.90;;;;;;5049451;28;20052;-81
2021/01/08 04:42:09;;;;;;;22.00;12.15;;;1.30;99.90;;;;;;5081767;28;20051;-81
2021/01/08 04:44:35;;;;;;;17.92;11.93;;;1.40;99.90;;;;;;5063893;28;20055;-81
2021/01/08 04:47:01;;;;;;;15.50;11.68;;;1.40;99.90;;;;;;5063993;28;20032;-81
2021/01/08 04:49:27;;;;;;;17.02;10.57;;;1.40;99.90;;;;;;5078901;28;20067;-81
2021/01/08 04:51:54;;;;;;;19.15;11.57;;;1.50;99.90;;;;;;5068283;28;20104;-81
2021/01/08 04:54:21;;;;;;;15.15;11.05;;;1.40;99.90;;;;;;5056393;28;20140;-81
2021/01/08 04:56:54;;;;;;;12.20;10.40;;;1.50;99.90;;;;;;5062036;28;20043;-81
2021/01/08 04:59:25;;;;;;;15.57;10.40;;;1.50;99.90;;;;;;5082932;28;20067;-81
2021/01/08 05:01:51;;;;;;;15.23;10.60;;;1.50;99.90;;;;;;5067797;28;20492;-81
2021/01/08 05:04:16;;;;;;;13.82;10.18;;;1.50;99.90;;;;;;5041669;28;20060;-81
2021/01/08 05:06:42;;;;;;;13.63;9.93;;;1.50;99.90;;;;;;5086177;28;20051;-81
2021/01/08 05:09:08;;;;;;;14.55;10.68;;;1.50;99.90;;;;;;5064553;28;20100;-81
2021/01/08 05:11:34;;;;;;;15.77;11.45;;;1.50;99.90;;;;;;5082857;28;20715;-81
2021/01/08 05:14:02;;;;;;;19.25;10.40;;;1.50;99.90;;;;;;5061959;28;20122;-81
2021/01/08 05:16:30;;;;;;;12.52;10.18;;;1.50;99.90;;;;;;5067362;28;20457;-81
2021/01/08 05:18:57;;;;;;;13.13;10.85;;;1.50;99.90;;;;;;5072738;28;20600;-81
2021/01/08 05:21:27;;;;;;;11.95;8.85;;;1.50;99.90;;;;;;5066744;28;20040;-81
2021/01/08 05:23:54;;;;;;;14.30;10.05;;;1.50;99.90;;;;;;5066303;28;20040;-81
2021/01/08 05:26:22;;;;;;;14.40;10.02;;;1.50;99.90;;;;;;5083135;28;20069;-81
2021/01/08 05:28:48;;;;;;;14.07;9.73;;;1.50;99.90;;;;;;5084870;28;20024;-82
2021/01/08 05:31:20;;;;;;;16.48;10.73;;;1.50;99.90;;;;;;5047730;28;20040;-81
2021/01/08 05:33:48;;;;;;;16.30;10.48;;;1.50;99.90;;;;;;5062948;28;20075;-81
2021/01/08 05:36:15;;;;;;;12.70;8.77;;;1.50;99.90;;;;;;5067851;28;20047;-81
2021/01/08 05:38:45;;;;;;;14.77;11.57;;;1.50;99.90;;;;;;5071679;28;20048;-81
2021/01/08 05:41:11;;;;;;;19.63;12.55;;;1.50;99.90;;;;;;5061172;28;20056;-81
2021/01/08 05:43:45;;;;;;;15.25;10.20;;;1.50;99.90;;;;;;5086464;28;20032;-81
2021/01/08 05:46:17;;;;;;;13.57;10.57;;;1.50;99.90;;;;;;5082485;28;20052;-81
2021/01/08 05:48:49;;;;;;;16.10;11.02;;;1.50;99.90;;;;;;5076166;28;20115;-80
2021/01/08 05:51:16;;;;;;;15.20;10.90;;;1.50;99.90;;;;;;5060549;28;20184;-80
2021/01/08 05:53:45;;;;;;;14.65;9.63;;;1.50;99.90;;;;;;5065011;28;20052;-81
2021/01/08 05:56:19;;;;;;;16.48;10.63;;;1.50;99.90;;;;;;5076441;28;20071;-81
2021/01/08 05:58:46;;;;;;;14.73;10.60;;;1.50;99.90;;;;;;5081594;28;20044;-81
2021/01/08 06:01:13;;;;;;;15.40;10.27;;;1.50;99.90;;;;;;5079330;28;20091;-81
2021/01/08 06:03:40;;;;;;;13.65;10.77;;;1.50;99.90;;;;;;5090122;28;20052;-84
2021/01/08 06:06:07;;;;;;;15.55;10.00;;;1.50;99.90;;;;;;5065224;28;20093;-83
2021/01/08 06:08:47;;;;;;;13.38;10.48;;;1.50;99.90;;;;;;5067213;28;20048;-82
2021/01/08 06:11:28;;;;;;;17.23;10.43;;;1.50;99.90;;;;;;5083283;28;20040;-83
2021/01/08 06:14:10;;;;;;;15.95;11.30;;;1.30;99.90;;;;;;5064943;28;20044;-83
2021/01/08 06:16:43;;;;;;;14.85;9.88;;;1.50;99.90;;;;;;5062322;28;20184;-82
2021/01/08 06:19:09;;;;;;;14.70;9.93;;;1.40;99.90;;;;;;5084494;28;20370;-82
2021/01/08 06:21:37;;;;;;;15.10;10.13;;;1.40;99.90;;;;;;5068737;28;20154;-82
2021/01/08 06:24:03;;;;;;;15.10;10.77;;;1.40;99.90;;;;;;5092125;28;20052;-82
2021/01/08 06:26:32;;;;;;;14.25;10.23;;;1.40;99.90;;;;;;5058629;28;20033;-80
2021/01/08 06:29:02;;;;;;;15.38;10.25;;;1.40;99.90;;;;;;5083801;28;20036;-82
2021/01/08 06:31:52;;;;;;;14.90;10.77;;;1.40;99.90;;;;;;5084385;28;20040;-80
2021/01/08 06:34:30;;;;;;;13.77;10.02;;;1.50;99.90;;;;;;5032852;28;20216;-80
2021/01/08 06:37:22;;;;;;;15.18;10.90;;;1.50;99.90;;;;;;5022219;28;20091;-80
2021/01/08 06:39:56;;;;;;;14.00;9.82;;;1.50;99.90;;;;;;5013521;28;20346;-80
2021/01/08 06:42:27;;;;;;;15.40;9.90;;;1.60;99.90;;;;;;5029263;28;20362;-81
2021/01/08 06:45:17;;;;;;;17.65;10.25;;;1.50;99.90;;;;;;5028927;28;20152;-81
2021/01/08 06:48:08;;;;;;;12.88;9.73;;;1.60;99.90;;;;;;5021940;28;20141;-81
2021/01/08 06:50:59;;;;;;;14.90;10.48;;;1.60;99.90;;;;;;5030706;28;20037;-81
2021/01/08 06:53:28;;;;;;;14.95;10.57;;;1.60;99.90;;;;;;5022788;28;20053;-82
2021/01/08 06:55:55;;;;;;;16.88;10.70;;;1.60;99.90;;;;;;5034953;28;20041;-81
2021/01/08 06:58:21;;;;;;;16.70;10.60;;;1.60;99.90;;;;;;5028514;28;20057;-82
2021/01/08 07:01:00;;;;;;;16.02;11.20;;;1.60;99.90;;;;;;5016051;28;20053;-81
2021/01/08 07:03:27;;;;;;;15.02;10.82;;;1.70;99.90;;;;;;5005746;28;20045;-81
2021/01/08 07:05:55;;;;;;;16.08;10.63;;;1.60;99.90;;;;;;5000983;28;20095;-82
2021/01/08 07:08:27;;;;;;;16.35;11.27;;;1.70;99.90;;;;;;5012668;28;20117;-82
2021/01/08 07:11:25;;;;;;;15.82;11.05;;;1.70;99.90;;;;;;5040921;28;20056;-81
2021/01/08 07:14:22;;;;;;;16.20;10.13;;;1.70;99.90;;;;;;5056507;28;20130;-81
2021/01/08 07:16:49;;;;;;;17.52;11.40;;;1.70;99.90;;;;;;5085602;28;20104;-81
2021/01/08 07:19:19;;;;;;;17.98;12.20;;;1.70;99.90;;;;;;5066132;28;20032;-80
2021/01/08 07:21:51;;;;;;;15.38;11.25;;;1.70;99.90;;;;;;5075077;28;20115;-82
2021/01/08 07:24:37;;;;;;;16.25;11.18;;;1.70;99.90;;;;;;5056471;28;20453;-81
2021/01/08 07:27:24;;;;;;;;;;;1.70;99.90;;;;;;5068171;28;20037;-81
2021/01/08 07:30:17;;;;;;;16.83;10.52;;;1.70;99.90;;;;;;5063868;28;20280;-83
2021/01/08 07:32:52;;;;;;;12.50;9.52;;;1.80;99.90;;;;;;5052727;28;20051;-82
2021/01/08 07:35:46;;;;;;;14.35;10.45;;;1.70;99.90;;;;;;5063448;28;20052;-83
2021/01/08 07:38:33;;;;;;;13.18;9.73;;;1.70;99.90;;;;;;5062661;28;20040;-83
2021/01/08 07:40:59;;;;;;;12.18;9.18;;;1.70;99.90;;;;;;5068392;28;20113;-82
2021/01/08 07:43:33;;;;;;;14.80;10.68;;;1.80;99.90;;;;;;5073165;28;20041;-81
2021/01/08 07:46:00;;;;;;;12.93;9.70;;;1.80;99.90;;;;;;5064337;28;20075;-82
2021/01/08 07:48:34;;;;;;;20.15;12.15;;;1.80;99.90;;;;;;5045959;28;20052;-81
2021/01/08 07:51:03;;;;;;;15.07;11.20;;;1.90;99.90;;;;;;5059372;28;20440;-81
2021/01/08 07:53:41;;;;;;;13.93;9.32;;;1.90;99.90;;;;;;5064043;28;20032;-82
2021/01/08 07:56:12;;;;;;;14.00;9.80;;;1.90;99.90;;;;;;5067965;28;20123;-82
2021/01/08 07:58:38;;;;;;;12.75;10.10;;;1.90;99.90;;;;;;5060961;28;20176;-82
2021/01/08 08:01:24;;;;;;;14.30;10.02;;;1.90;99.90;;;;;;5061617;28;20040;-81
2021/01/08 08:04:09;;;;;;;13.50;9.27;;;1.80;99.90;;;;;;5066491;28;20039;-81
2021/01/08 08:06:38;;;;;;;13.63;8.60;;;1.90;99.90;;;;;;5059664;28;20051;-82
2021/01/08 08:09:07;;;;;;;11.10;8.63;;;1.80;99.90;;;;;;5066324;28;20450;-82
2021/01/08 08:11:40;;;;;;;16.80;10.55;;;1.90;99.90;;;;;;5081326;28;20180;-83
2021/01/08 08:14:12;;;;;;;16.35;9.55;;;1.90;99.90;;;;;;5086967;28;20041;-82
2021/01/08 08:16:39;;;;;;;11.15;9.27;;;1.80;99.90;;;;;;5046471;28;20118;-82
2021/01/08 08:19:15;;;;;;;12.57;8.45;;;1.90;99.90;;;;;;5065067;28;20049;-82
2021/01/08 08:21:47;;;;;;;14.43;7.88;;;1.90;99.90;;;;;;5057610;28;20151;-82
2021/01/08 08:24:16;;;;;;;15.82;10.48;;;1.90;99.90;;;;;;5048567;28;20048;-81
2021/01/08 08:26:43;;;;;;;15.50;9.88;;;1.90;99.90;;;;;;5064645;28;20060;-81
2021/01/08 08:29:13;;;;;;;15.20;8.77;;;1.90;99.90;;;;;;5070815;28;20529;-81
2021/01/08 08:31:47;;;;;;;13.77;9.00;;;1.90;99.90;;;;;;5066698;28;20052;-82
2021/01/08 08:34:31;;;;;;;13.57;8.52;;;2.00;99.90;;;;;;5089070;28;20036;-81
2021/01/08 08:37:07;;;;;;;14.50;9.40;;;2.00;99.90;;;;;;5060532;28;20147;-81
2021/01/08 08:39:33;;;;;;;12.10;8.27;;;1.90;99.90;;;;;;5087695;28;20120;-80
2021/01/08 08:42:06;;;;;;;14.50;8.77;;;1.90;99.90;;;;;;5078436;28;20106;-82
2021/01/08 08:44:44;;;;;;;11.45;7.93;;;1.90;99.90;;;;;;5052399;28;20051;-80
2021/01/08 08:47:11;;;;;;;12.15;8.02;;;1.90;99.90;;;;;;5064052;28;20480;-80
2021/01/08 08:49:51;;;;;;;14.75;8.23;;;2.00;99.90;;;;;;5071217;28;20056;-81
2021/01/08 08:52:35;;;;;;;18.33;9.10;;;2.00;99.90;;;;;;5097891;28;20056;-82
2021/01/08 08:55:04;;;;;;;10.45;8.02;;;1.90;99.90;;;;;;5076513;28;20063;-81
2021/01/08 08:57:30;;;;;;;16.85;9.02;;;1.90;99.90;;;;;;5091844;28;20044;-82
2021/01/08 08:59:55;;;;;;;14.43;8.20;;;1.90;99.90;;;;;;5070879;28;20044;-82
2021/01/08 09:02:26;;;;;;;13.18;8.45;;;1.90;99.90;;;;;;5075743;28;20040;-82
2021/01/08 09:05:00;;;;;;;13.18;8.30;;;1.90;99.90;;;;;;5067972;28;20036;-83
2021/01/08 09:07:37;;;;;;;15.15;9.18;;;2.00;99.90;;;;;;5075357;28;20169;-84
2021/01/08 09:10:09;;;;;;;17.17;9.48;;;2.00;99.90;;;;;;5081760;28;20041;-82
2021/01/08 09:12:37;;;;;;;12.70;8.32;;;2.00;99.90;;;;;;5092987;28;20542;-83
2021/01/08 09:15:28;;;;;;;14.05;9.85;;;2.00;99.90;;;;;;5063372;28;20401;-85
2021/01/08 09:18:07;;;;;;;12.05;8.45;;;2.10;99.90;;;;;;5075245;28;20043;-83
2021/01/08 09:20:38;;;;;;;18.42;9.52;;;2.00;99.90;;;;;;5083280;28;20045;-82
2021/01/08 09:23:04;;;;;;;12.25;8.38;;;2.00;99.90;;;;;;5071854;28;20050;-82
2021/01/08 09:25:32;;;;;;;11.27;8.57;;;2.00;99.90;;;;;;5083759;28;20048;-82
2021/01/08 09:27:58;;;;;;;12.80;8.40;;;2.10;99.90;;;;;;5060881;28;20139;-82
2021/01/08 09:30:24;;;;;;;14.93;8.80;;;2.00;99.90;;;;;;5086547;28;20055;-82
2021/01/08 09:32:50;;;;;;;11.80;8.13;;;2.00;99.90;;;;;;5078691;28;20044;-82
2021/01/08 09:35:16;;;;;;;9.18;7.55;;;2.10;99.90;;;;;;5067755;28;20056;-82
2021/01/08 09:37:55;;;;;;;13.05;8.32;;;2.10;99.90;;;;;;5072886;28;20045;-81
2021/01/08 09:40:21;;;;;;;11.25;7.85;;;2.10;99.90;;;;;;5050787;28;20059;-83
2021/01/08 09:42:48;;;;;;;12.20;8.48;;;2.10;99.90;;;;;;5089535;28;20036;-82
2021/01/08 09:45:23;;;;;;;12.98;8.70;;;2.10;99.90;;;;;;5070689;28;20474;-83
2021/01/08 09:47:50;;;;;;;13.70;9.15;;;2.20;99.90;;;;;;5070632;28;20041;-84
2021/01/08 09:50:23;;;;;;;17.80;10.88;;;2.20;99.90;;;;;;5041078;28;20113;-84
2021/01/08 09:52:50;;;;;;;19.45;12.80;;;2.20;99.90;;;;;;5071372;28;20036;-85
2021/01/08 09:55:29;;;;;;;17.60;12.50;;;2.20;99.90;;;;;;5082426;28;20068;-84
2021/01/08 09:58:01;;;;;;;19.73;12.05;;;2.30;99.90;;;;;;5071305;28;20086;-85
2021/01/08 10:00:29;;;;;;;14.93;11.05;;;2.30;99.90;;;;;;5041797;28;20040;-85
2021/01/08 10:02:56;;;;;;;19.13;11.85;;;2.30;99.90;;;;;;5070764;28;20111;-84
2021/01/08 10:05:31;;;;;;;14.32;10.65;;;2.40;99.90;;;;;;5079055;28;20037;-84
2021/01/08 10:07:58;;;;;;;14.05;10.32;;;2.40;99.90;;;;;;5076330;28;20035;-81
2021/01/08 10:10:27;;;;;;;14.07;9.95;;;2.50;99.90;;;;;;5084068;28;20040;-81
2021/01/08 10:12:56;;;;;;;17.20;10.60;;;2.60;99.90;;;;;;5068120;28;20052;-81
2021/01/08 10:15:46;;;;;;;10.30;8.43;;;2.60;99.90;;;;;;5087786;28;20040;-82
2021/01/08 10:18:22;;;;;;;9.98;8.02;;;2.70;99.90;;;;;;5082592;28;20040;-83
2021/01/08 10:20:50;;;;;;;11.50;9.30;;;2.80;99.90;;;;;;5065598;28;20445;-82
2021/01/08 10:23:18;;;;;;;20.38;13.43;;;2.80;99.90;;;;;;5054800;28;20171;-82
2021/01/08 10:26:17;;;;;;;10.88;7.95;;;2.90;99.90;;;;;;5067274;28;20476;-80
2021/01/08 10:28:51;;;;;;;8.85;7.03;;;3.00;99.90;;;;;;5067440;28;20072;-83
2021/01/08 10:31:19;;;;;;;14.15;9.15;;;3.00;99.90;;;;;;5048977;28;20044;-83
2021/01/08 10:33:45;;;;;;;10.18;8.57;;;3.00;99.90;;;;;;5084315;28;20036;-82
2021/01/08 10:36:11;;;;;;;10.07;8.90;;;3.10;99.90;;;;;;5062538;28;20052;-83
2021/01/08 10:38:38;;;;;;;10.02;7.72;;;3.10;99.90;;;;;;5080585;28;20040;-83
2021/01/08 10:41:25;;;;;;;10.70;7.68;;;3.10;99.90;;;;;;5079334;28;20067;-84
2021/01/08 10:44:02;;;;;;;8.35;6.05;;;3.10;99.90;;;;;;5054151;28;20063;-85
2021/01/08 10:46:28;;;;;;;8.60;6.20;;;3.10;99.90;;;;;;5091818;28;20028;-85
2021/01/08 10:48:55;;;;;;;10.68;6.93;;;3.10;99.90;;;;;;5067164;28;20052;-85
2021/01/08 10:51:55;;;;;;;8.30;6.70;;;3.10;99.90;;;;;;5070369;28;20071;-85
2021/01/08 10:54:38;;;;;;;9.68;6.45;;;3.20;99.90;;;;;;5060266;28;20028;-84
2021/01/08 10:57:04;;;;;;;10.63;7.15;;;3.10;99.90;;;;;;5053449;28;20052;-85
2021/01/08 10:59:30;;;;;;;6.32;5.32;;;3.20;99.90;;;;;;5084014;28;20821;-85
2021/01/08 11:01:56;;;;;;;6.25;5.38;;;3.20;99.90;;;;;;5061069;28;20060;-85
2021/01/08 11:04:22;;;;;;;6.75;5.38;;;3.30;99.90;;;;;;5054991;28;20052;-86
2021/01/08 11:06:58;;;;;;;8.65;6.45;;;3.30;99.90;;;;;;5062064;28;20465;-84
2021/01/08 11:09:24;;;;;;;11.80;6.55;;;3.30;99.90;;;;;;5065590;28;20036;-83
2021/01/08 11:11:52;;;;;;;8.02;5.20;;;3.30;99.90;;;;;;5069421;28;20048;-83
2021/01/08 11:14:18;;;;;;;10.98;6.43;;;3.30;99.40;;;;;;5064065;28;20112;-82
2021/01/08 11:16:50;;;;;;;8.13;6.43;;;3.30;99.60;;;;;;5069224;28;20033;-82
2021/01/08 11:19:16;;;;;;;8.95;5.93;;;3.30;99.30;;;;;;5067645;28;20064;-82
2021/01/08 11:21:42;;;;;;;9.27;5.57;;;3.20;99.20;;;;;;5072490;28;20127;-82
2021/01/08 11:24:09;;;;;;;8.10;6.22;;;3.20;99.30;;;;;;5074090;28;20025;-82
2021/01/08 11:26:35;;;;;;;10.63;6.57;;;3.20;99.20;;;;;;5076585;28;20037;-82
2021/01/08 11:29:01;;;;;;;9.45;6.50;;;3.10;99.30;;;;;;5071539;28;20057;-81
2021/01/08 11:31:36;;;;;;;7.95;5.78;;;3.10;99.30;;;;;;5071940;28;20059;-81
2021/01/08 11:34:03;;;;;;;8.32;6.07;;;3.10;99.40;;;;;;5054553;28;20072;-82
2021/01/08 11:36:29;;;;;;;9.77;6.93;;;3.10;99.70;;;;;;5069366;28;20033;-81
2021/01/08 11:38:55;;;;;;;7.68;5.43;;;3.10;99.30;;;;;;5063619;28;20060;-81
2021/01/08 11:41:21;;;;;;;6.60;4.93;;;3.00;99.30;;;;;;5063449;28;20124;-82
2021/01/08 11:43:47;;;;;;;8.65;5.10;;;3.10;99.20;;;;;;5067339;28;20044;-81
2021/01/08 11:46:15;;;;;;;5.18;4.38;;;3.10;98.80;;;;;;5060292;28;20543;-81
2021/01/08 11:48:43;;;;;;;5.10;4.20;;;3.10;99.00;;;;;;5068020;28;20056;-81
2021/01/08 11:51:14;;;;;;;4.50;3.72;;;3.10;98.90;;;;;;5060450;28;20575;-82
2021/01/08 11:53:44;;;;;;;3.55;3.15;;;3.10;98.80;;;;;;5058044;28;20734;-80
2021/01/08 11:56:11;;;;;;;5.95;3.40;;;3.10;98.60;;;;;;5066337;28;20485;-80
2021/01/08 11:58:39;;;;;;;5.10;3.42;;;3.10;98.50;;;;;;5055795;28;20053;-82
2021/01/08 12:01:06;;;;;;;6.13;3.38;;;3.10;98.50;;;;;;5067401;28;20052;-82
2021/01/08 12:03:32;;;;;;;4.13;3.47;;;3.10;98.30;;;;;;5093256;28;20056;-82
2021/01/08 12:05:58;;;;;;;4.85;3.60;;;3.10;98.50;;;;;;5066055;28;20041;-83
2021/01/08 12:08:24;;;;;;;4.82;3.65;;;3.10;98.30;;;;;;5076489;28;20097;-84
2021/01/08 12:10:50;;;;;;;4.13;3.67;;;3.20;98.20;;;;;;5087956;28;20036;-83
2021/01/08 12:13:17;;;;;;;5.07;4.18;;;3.20;98.30;;;;;;5078942;28;20068;-83
2021/01/08 12:15:44;;;;;;;5.25;3.63;;;3.20;98.20;;;;;;5062286;28;20032;-84
2021/01/08 12:18:13;;;;;;;7.57;4.18;;;3.30;98.30;;;;;;5064995;28;20037;-83
2021/01/08 12:20:39;;;;;;;6.18;3.65;;;3.40;98.20;;;;;;5071519;28;20734;-82
2021/01/08 12:23:05;;;;;;;6.50;3.88;;;3.40;97.90;;;;;;5070776;28;20123;-83
2021/01/08 12:25:38;;;;;;;5.70;4.68;;;3.50;97.70;;;;;;5076334;28;20059;-84
2021/01/08 12:28:10;;;;;;;4.47;4.05;;;3.50;97.80;;;;;;5076077;28;20066;-84
2021/01/08 12:30:45;;;;;;;5.22;4.30;;;3.50;97.90;;;;;;5091747;28;20043;-84
2021/01/08 12:33:16;;;;;;;4.18;3.22;;;3.60;97.80;;;;;;5050232;28;20448;-85
2021/01/08 12:35:47;;;;;;;3.75;3.35;;;3.60;97.40;;;;;;5061083;28;20074;-83
2021/01/08 12:38:13;;;;;;;4.53;3.42;;;3.60;97.10;;;;;;5062900;28;20049;-83
2021/01/08 12:40:38;;;;;;;4.00;3.60;;;3.70;97.10;;;;;;5076413;28;20032;-84
2021/01/08 12:43:04;;;;;;;4.30;3.90;;;3.70;97.20;;;;;;5057177;28;20067;-82
2021/01/08 12:45:30;;;;;;;4.78;3.42;;;3.80;97.10;;;;;;5062468;28;20411;-82
2021/01/08 12:47:58;;;;;;;4.20;3.75;;;3.80;96.50;;;;;;5072154;28;20144;-84
2021/01/08 12:50:24;;;;;;;9.88;4.78;;;3.90;96.20;;;;;;5088168;28;20051;-82
2021/01/08 12:53:03;;;;;;;4.68;3.40;;;3.80;96.60;;;;;;5071125;28;20028;-83
2021/01/08 12:55:29;;;;;;;4.60;4.00;;;3.80;96.80;;;;;;5074464;28;20477;-82
2021/01/08 12:58:03;;;;;;;6.53;4.10;;;3.80;96.70;;;;;;5086280;28;20032;-83